Time;durP1;ratioP1;P1;durP2;ratioP2;P2;SDS_P1;SDS_P2;PMS_P1;PMS_P2;Temp;Humidity;BMP_temperature;BMP_pressure;BME280_temperature;BME280_humidity;BME280_pressure;Samples;Min_cycle;Max_cycle;Signal;HPM_P1;HPM_P2
2022/12/19 00:01:07;;;;;;;;;;;0.50;99.90;;;;;;5040532;28;19913;-63
2022/12/19 00:03:33;;;;;;;;;;;0.50;99.90;;;;;;5043244;28;19917;-64
2022/12/19 00:06:05;;;;;;;;;;;0.50;99.90;;;;;;5045855;28;19913;-64
2022/12/19 00:08:30;;;;;;;;;;;0.50;99.90;;;;;;5047630;28;19912;-64
2022/12/19 00:10:57;;;;;;;;;;;0.50;99.90;;;;;;5047876;28;19971;-64
2022/12/19 00:13:23;;;;;;;;;;;0.60;99.90;;;;;;5047331;28;19917;-64
2022/12/19 00:15:48;;;;;;;;;;;0.60;99.90;;;;;;5042887;28;19920;-64
2022/12/19 00:18:14;;;;;;;;;;;0.60;99.90;;;;;;5046904;28;19920;-63
2022/12/19 00:20:39;;;;;;;;;;;0.70;99.90;;;;;;5045631;28;19943;-63
2022/12/19 00:23:05;;;;;;;;;;;0.70;99.90;;;;;;5042616;28;19913;-64
2022/12/19 00:25:30;;;;;;;;;;;0.70;99.90;;;;;;5042276;28;19917;-63
2022/12/19 00:27:56;;;;;;;;;;;0.70;99.90;;;;;;5047085;28;19919;-64
2022/12/19 00:30:21;;;;;;;;;;;0.70;99.90;;;;;;5046868;28;19935;-64
2022/12/19 00:32:47;;;;;;;;;;;0.70;99.90;;;;;;5046629;28;19947;-64
2022/12/19 00:35:12;;;;;;;;;;;0.70;99.90;;;;;;5045005;28;19913;-64
2022/12/19 00:37:38;;;;;;;;;;;0.80;99.90;;;;;;5047601;28;20367;-65
2022/12/19 00:40:04;;;;;;;;;;;0.80;99.90;;;;;;5042697;28;19956;-63
2022/12/19 00:42:29;;;;;;;;;;;0.80;99.90;;;;;;5046972;28;19916;-64
2022/12/19 00:44:55;;;;;;;;;;;0.80;99.90;;;;;;5048818;28;19958;-64
2022/12/19 00:47:20;;;;;;;;;;;0.80;99.90;;;;;;5044394;28;20386;-64
2022/12/19 00:49:46;;;;;;;;;;;0.80;99.90;;;;;;5049079;28;19940;-65
2022/12/19 00:52:11;;;;;;;;;;;0.80;99.90;;;;;;5051153;28;19966;-64
2022/12/19 00:54:36;;;;;;;;;;;0.80;99.90;;;;;;5049441;28;19920;-64
2022/12/19 00:57:02;;;;;;;;;;;0.80;99.90;;;;;;5048859;28;19928;-64
2022/12/19 00:59:27;;;;;;;;;;;0.90;99.90;;;;;;5047518;28;19916;-64
2022/12/19 01:01:53;;;;;;;;;;;0.90;99.90;;;;;;5047784;28;19913;-64
2022/12/19 01:04:18;;;;;;;;;;;0.90;99.90;;;;;;5048949;28;19952;-64
2022/12/19 01:06:44;;;;;;;;;;;0.90;99.90;;;;;;5046808;28;19920;-64
2022/12/19 01:09:10;;;;;;;;;;;0.90;99.90;;;;;;5050920;28;19927;-62
2022/12/19 01:14:20;;;;;;;;;;;1.00;99.90;;;;;;5049333;28;19924;-64
2022/12/19 01:16:45;;;;;;;;;;;1.10;99.90;;;;;;5044329;28;19912;-64
2022/12/19 01:19:11;;;;;;;;;;;1.10;99.90;;;;;;5049470;28;19943;-64
2022/12/19 01:21:36;;;;;;;;;;;1.10;99.90;;;;;;5047405;28;19916;-62
2022/12/19 01:24:02;;;;;;;;;;;1.10;99.90;;;;;;5047862;28;20393;-64
2022/12/19 01:26:28;;;;;;;;;;;1.10;99.90;;;;;;5041854;28;19913;-64
2022/12/19 01:28:53;;;;;;;;;;;1.10;99.90;;;;;;5047513;28;19988;-64
2022/12/19 01:31:18;;;;;;;;;;;1.20;99.90;;;;;;5047324;28;20007;-64
2022/12/19 01:33:44;;;;;;;;;;;1.20;99.90;;;;;;5047998;28;20302;-63
2022/12/19 01:36:09;;;;;;;;;;;1.20;99.90;;;;;;5049733;28;19967;-63
2022/12/19 01:38:35;;;;;;;;;;;1.20;99.90;;;;;;5051269;28;19913;-64
2022/12/19 01:41:01;;;;;;;;;;;1.30;99.90;;;;;;5044630;28;19917;-64
2022/12/19 01:43:31;;;;;;;;;;;1.30;99.90;;;;;;5050504;28;19913;-65
2022/12/19 01:45:57;;;;;;;;;;;1.30;99.90;;;;;;5047672;28;19913;-64
2022/12/19 01:48:23;;;;;;;;;;;1.30;99.90;;;;;;5048128;28;20023;-64
2022/12/19 01:50:53;;;;;;;;;;;1.30;99.90;;;;;;5048501;28;20023;-64
2022/12/19 01:53:19;;;;;;;;;;;1.40;99.90;;;;;;5049321;28;19948;-63
2022/12/19 01:55:45;;;;;;;;;;;1.40;99.90;;;;;;5046372;28;19968;-64
2022/12/19 01:58:12;;;;;;;;;;;1.40;99.90;;;;;;5048254;28;20342;-64
2022/12/19 02:00:38;;;;;;;;;;;1.40;99.90;;;;;;5045936;28;19913;-64
2022/12/19 02:03:06;;;;;;;;;;;1.40;99.90;;;;;;5043523;28;19932;-64
2022/12/19 02:05:32;;;;;;;;;;;1.40;99.90;;;;;;5047992;28;19913;-62
2022/12/19 02:07:57;;;;;;;;;;;1.40;99.90;;;;;;5051000;28;20034;-64
2022/12/19 02:10:23;;;;;;;;;;;1.50;99.90;;;;;;5048438;28;20438;-63
2022/12/19 02:12:48;;;;;;;;;;;1.50;99.90;;;;;;5049235;28;19925;-64
2022/12/19 02:15:14;;;;;;;;;;;1.50;99.90;;;;;;5044401;28;19913;-65
2022/12/19 02:17:39;;;;;;;;;;;1.50;99.90;;;;;;5050855;28;19919;-64
2022/12/19 02:20:05;;;;;;;;;;;1.50;99.90;;;;;;5032049;28;19956;-64
2022/12/19 02:22:30;;;;;;;;;;;1.50;99.90;;;;;;5046431;28;19963;-64
2022/12/19 02:24:56;;;;;;;;;;;1.50;99.90;;;;;;5046157;28;19952;-64
2022/12/19 02:27:41;;;;;;;;;;;1.50;99.90;;;;;;5049756;28;20361;-64
2022/12/19 02:30:09;;;;;;;;;;;1.50;99.90;;;;;;5000981;28;19940;-64
2022/12/19 02:32:46;;;;;;;;;;;1.60;99.90;;;;;;5026232;28;20398;-64
2022/12/19 02:35:18;;;;;;;;;;;1.50;99.90;;;;;;5048945;28;19913;-65
2022/12/19 02:37:47;;;;;;;;;;;1.60;99.90;;;;;;5045319;28;20375;-65
2022/12/19 02:40:12;;;;;;;;;;;1.60;99.90;;;;;;5044771;28;19920;-64
2022/12/19 02:42:40;;;;;;;;;;;1.60;99.90;;;;;;5045208;28;20294;-64
2022/12/19 02:45:07;;;;;;;;;;;1.60;99.90;;;;;;5046316;28;19913;-64
2022/12/19 02:47:33;;;;;;;;;;;1.60;99.90;;;;;;5049455;28;19916;-64
2022/12/19 02:49:59;;;;;;;;;;;1.60;99.90;;;;;;5048536;28;20019;-64
2022/12/19 02:52:25;;;;;;;;;;;1.70;99.90;;;;;;5041656;28;19917;-65
2022/12/19 02:54:52;;;;;;;;;;;1.60;99.90;;;;;;5029600;28;20359;-65
2022/12/19 02:57:26;;;;;;;;;;;1.70;99.90;;;;;;5047087;28;19919;-64
2022/12/19 02:59:51;;;;;;;;;;;1.70;99.90;;;;;;5047743;28;19912;-64
2022/12/19 03:02:36;;;;;;;;;;;1.70;99.90;;;;;;5045562;28;20305;-64
2022/12/19 03:05:12;;;;;;;;;;;1.70;99.90;;;;;;5049298;28;19916;-64
2022/12/19 03:07:46;;;;;;;;;;;1.70;99.90;;;;;;5047260;28;20263;-64
2022/12/19 03:10:17;;;;;;;;;;;1.70;99.90;;;;;;5045765;28;19913;-64
2022/12/19 03:12:48;;;;;;;;;;;1.70;99.90;;;;;;5043133;28;20363;-65
2022/12/19 03:15:14;;;;;;;;;;;1.80;99.90;;;;;;5039911;28;19956;-65
2022/12/19 03:17:39;;;;;;;;;;;1.70;99.90;;;;;;5049840;28;19960;-65
2022/12/19 03:20:12;;;;;;;;;;;1.70;99.90;;;;;;5044253;28;19917;-64
2022/12/19 03:22:38;;;;;;;;;;;1.70;99.90;;;;;;5043500;28;19920;-64
2022/12/19 03:25:03;;;;;;;;;;;1.70;99.90;;;;;;5049389;28;20310;-64
2022/12/19 03:27:32;;;;;;;;;;;1.70;99.90;;;;;;5048872;28;19924;-63
2022/12/19 03:30:02;;;;;;;;;;;1.80;99.90;;;;;;5042943;28;19967;-64
2022/12/19 03:32:29;;;;;;;;;;;1.80;99.90;;;;;;5025213;28;19916;-64
2022/12/19 03:34:58;;;;;;;;;;;1.70;99.90;;;;;;5048783;28;20369;-64
2022/12/19 03:37:25;;;;;;;;;;;1.70;99.90;;;;;;5043059;28;20025;-65
2022/12/19 03:39:53;;;;;;;;;;;1.80;99.90;;;;;;5049358;28;19995;-62
2022/12/19 03:45:05;;;;;;;;;;;1.80;99.90;;;;;;5042895;28;20329;-64
2022/12/19 03:47:37;;;;;;;;;;;1.80;99.90;;;;;;5062982;22;19929;-62
2022/12/19 03:50:02;;;;;;;;;;;1.70;99.90;;;;;;5046378;28;19913;-63
2022/12/19 03:52:32;;;;;;;;;;;1.80;99.90;;;;;;5054811;28;19917;-63
2022/12/19 03:55:11;;;;;;;;;;;1.80;99.90;;;;;;5051538;28;19913;-64
2022/12/19 03:57:57;;;;;;;;;;;1.90;99.90;;;;;;5048004;28;19917;-63
2022/12/19 04:00:24;;;;;;;;;;;1.80;99.90;;;;;;5048101;28;19923;-63
2022/12/19 04:02:51;;;;;;;;;;;1.80;99.90;;;;;;5053323;28;19966;-63
2022/12/19 04:05:18;;;;;;;;;;;1.80;99.90;;;;;;5048722;28;19913;-64
2022/12/19 04:07:44;;;;;;;;;;;1.90;99.90;;;;;;5052918;28;20036;-63
2022/12/19 04:10:13;;;;;;;;;;;1.90;99.90;;;;;;5048411;28;19967;-62
2022/12/19 04:12:41;;;;;;;;;;;1.90;99.90;;;;;;5052670;28;19921;-62
2022/12/19 04:15:07;;;;;;;;;;;1.90;99.90;;;;;;5054103;28;20333;-62
2022/12/19 04:17:32;;;;;;;;;;;1.90;99.90;;;;;;5049867;28;19913;-65
2022/12/19 04:20:04;;;;;;;;;;;1.90;99.90;;;;;;5057130;28;19916;-64
2022/12/19 04:22:52;;;;;;;;;;;2.00;99.90;;;;;;5052566;28;19913;-64
2022/12/19 04:25:20;;;;;;;;;;;1.90;99.90;;;;;;5028953;28;19913;-64
2022/12/19 04:27:50;;;;;;;;;;;2.00;99.90;;;;;;5050058;28;19917;-64
2022/12/19 04:30:16;;;;;;;;;;;1.90;99.90;;;;;;5052476;28;19916;-63
2022/12/19 04:32:41;;;;;;;;;;;1.90;99.90;;;;;;5047147;28;20398;-63
2022/12/19 04:35:07;;;;;;;;;;;2.00;99.90;;;;;;5053063;28;19951;-64
2022/12/19 04:37:32;;;;;;;;;;;2.00;99.90;;;;;;5050559;28;19956;-64
2022/12/19 04:39:58;;;;;;;;;;;2.00;99.90;;;;;;5051558;28;19913;-64
2022/12/19 04:42:24;;;;;;;;;;;2.00;99.90;;;;;;5049797;28;20275;-64
2022/12/19 04:44:49;;;;;;;;;;;2.00;99.90;;;;;;5051541;28;19919;-63
2022/12/19 04:47:15;;;;;;;;;;;2.00;99.90;;;;;;5056029;28;19963;-64
2022/12/19 04:49:40;;;;;;;;;;;2.00;99.90;;;;;;5059712;28;19920;-64
2022/12/19 04:52:06;;;;;;;;;;;2.10;99.90;;;;;;5057179;28;20011;-64
2022/12/19 04:54:31;;;;;;;;;;;2.10;99.90;;;;;;5061431;28;20006;-64
2022/12/19 04:56:57;;;;;;;;;;;2.10;99.90;;;;;;5051281;28;19912;-64
2022/12/19 04:59:23;;;;;;;;;;;2.10;99.90;;;;;;5055327;28;20328;-63
2022/12/19 05:01:48;;;;;;;;;;;2.10;99.90;;;;;;5053967;28;19913;-64
2022/12/19 05:04:14;;;;;;;;;;;2.10;99.90;;;;;;5056723;28;20290;-64
2022/12/19 05:06:39;;;;;;;;;;;2.20;99.90;;;;;;5049738;28;19919;-61
2022/12/19 05:09:05;;;;;;;;;;;2.20;99.90;;;;;;5055712;28;19920;-64
2022/12/19 05:11:30;;;;;;;;;;;2.10;99.90;;;;;;5053650;28;20392;-63
2022/12/19 05:13:57;;;;;;;;;;;2.20;99.90;;;;;;5058536;28;19913;-63
2022/12/19 05:16:22;;;;;;;;;;;2.20;99.90;;;;;;5057930;28;19979;-65
2022/12/19 05:18:47;;;;;;;;;;;2.20;99.90;;;;;;5052942;28;19962;-64
2022/12/19 05:21:13;;;;;;;;;;;2.20;99.90;;;;;;5051560;28;20298;-64
2022/12/19 05:23:38;;;;;;;;;;;2.20;99.90;;;;;;5055476;28;19913;-65
2022/12/19 05:26:04;;;;;;;;;;;2.20;99.90;;;;;;5048449;28;19917;-64
2022/12/19 05:28:30;;;;;;;;;;;2.20;99.90;;;;;;5050053;28;20373;-64
2022/12/19 05:31:06;;;;;;;;;;;2.30;99.90;;;;;;5049895;28;20390;-64
2022/12/19 05:33:32;;;;;;;;;;;2.20;99.90;;;;;;5049524;28;19966;-65
2022/12/19 05:35:58;;;;;;;;;;;2.30;99.90;;;;;;5056193;28;19996;-64
2022/12/19 05:38:24;;;;;;;;;;;2.30;99.90;;;;;;5052629;28;19912;-64
2022/12/19 05:40:49;;;;;;;;;;;2.30;99.90;;;;;;5050998;28;19957;-65
2022/12/19 05:43:15;;;;;;;;;;;2.30;99.90;;;;;;5045603;28;19951;-64
2022/12/19 05:45:40;;;;;;;;;;;2.30;99.90;;;;;;5049648;28;19949;-63
2022/12/19 05:48:05;;;;;;;;;;;2.30;99.90;;;;;;5056245;28;19928;-63
2022/12/19 05:50:31;;;;;;;;;;;2.30;99.90;;;;;;5050334;28;19920;-64
2022/12/19 05:52:56;;;;;;;;;;;2.40;99.90;;;;;;5055721;28;20008;-63
2022/12/19 05:55:22;;;;;;;;;;;2.30;99.90;;;;;;5051051;28;20294;-63
2022/12/19 05:57:47;;;;;;;;;;;2.40;99.90;;;;;;5044652;28;20290;-64
2022/12/19 06:00:13;;;;;;;;;;;2.40;99.90;;;;;;5048243;28;19921;-64
2022/12/19 06:02:38;;;;;;;;;;;2.40;99.90;;;;;;5046711;28;19912;-63
2022/12/19 06:05:04;;;;;;;;;;;2.50;99.90;;;;;;5048162;28;21143;-65
2022/12/19 06:07:29;;;;;;;;;;;2.50;99.90;;;;;;5051949;28;19923;-64
2022/12/19 06:09:55;;;;;;;;;;;2.50;99.90;;;;;;5053501;28;20346;-64
2022/12/19 06:12:20;;;;;;;;;;;2.50;99.90;;;;;;5051547;28;20011;-64
2022/12/19 06:14:46;;;;;;;;;;;2.50;99.90;;;;;;5048686;28;20275;-64
2022/12/19 06:17:11;;;;;;;;;;;2.60;99.90;;;;;;5052948;28;19935;-64
2022/12/19 06:19:37;;;;;;;;;;;2.60;99.90;;;;;;5046969;28;19912;-64
2022/12/19 06:22:02;;;;;;;;;;;2.60;99.90;;;;;;5049014;28;19913;-64
2022/12/19 06:24:28;;;;;;;;;;;2.60;99.90;;;;;;5054700;28;19912;-64
2022/12/19 06:26:53;;;;;;;;;;;2.70;99.90;;;;;;5046916;28;19913;-64
2022/12/19 06:29:19;;;;;;;;;;;2.80;99.90;;;;;;5050002;28;20428;-64
2022/12/19 06:31:44;;;;;;;;;;;2.80;99.90;;;;;;5047412;28;20294;-63
2022/12/19 06:34:10;;;;;;;;;;;2.90;99.90;;;;;;5054343;28;19913;-66
2022/12/19 06:36:35;;;;;;;;;;;2.90;99.90;;;;;;5058096;28;19917;-63
2022/12/19 06:39:01;;;;;;;;;;;2.90;99.90;;;;;;5045717;28;19951;-64
2022/12/19 06:44:11;;;;;;;;;;;3.00;99.90;;;;;;5051903;28;19923;-63
2022/12/19 06:46:37;;;;;;;;;;;3.00;99.90;;;;;;5055066;28;20046;-64
2022/12/19 06:49:03;;;;;;;;;;;3.00;99.90;;;;;;5056660;28;20000;-63
2022/12/19 06:51:29;;;;;;;;;;;3.00;99.90;;;;;;5052352;28;20306;-64
2022/12/19 06:53:54;;;;;;;;;;;3.00;99.90;;;;;;5051907;28;19908;-64
2022/12/19 06:56:20;;;;;;;;;;;3.00;99.90;;;;;;5047746;28;19913;-63
2022/12/19 06:58:46;;;;;;;;;;;3.00;99.90;;;;;;5054186;28;20386;-64
2022/12/19 07:01:38;;;;;;;;;;;3.00;99.90;;;;;;5057680;28;19913;-63
2022/12/19 07:04:04;;;;;;;;;;;3.10;99.90;;;;;;5028999;28;19936;-64
2022/12/19 07:06:29;;;;;;;;;;;3.10;99.90;;;;;;5052302;28;19913;-64
2022/12/19 07:08:55;;;;;;;;;;;3.10;99.90;;;;;;5049342;28;19939;-65
2022/12/19 07:11:20;;;;;;;;;;;3.10;99.90;;;;;;5044655;28;19968;-64
2022/12/19 07:13:45;;;;;;;;;;;3.10;99.90;;;;;;5050195;28;19917;-65
2022/12/19 07:16:11;;;;;;;;;;;3.10;99.90;;;;;;5053566;28;19939;-64
2022/12/19 07:18:38;;;;;;;;;;;3.20;99.90;;;;;;5058961;28;19916;-65
2022/12/19 07:21:03;;;;;;;;;;;3.20;99.90;;;;;;5050851;28;19921;-65
2022/12/19 07:23:29;;;;;;;;;;;3.20;99.90;;;;;;5054092;28;20274;-64
2022/12/19 07:25:54;;;;;;;;;;;3.20;99.90;;;;;;5052903;28;19912;-65
2022/12/19 07:28:20;;;;;;;;;;;3.20;99.90;;;;;;5051627;28;19963;-63
2022/12/19 07:30:45;;;;;;;;;;;3.30;99.90;;;;;;5052516;28;19924;-63
2022/12/19 07:33:11;;;;;;;;;;;3.30;99.90;;;;;;5058399;28;20286;-63
2022/12/19 07:35:37;;;;;;;;;;;3.30;99.90;;;;;;5056620;28;19913;-64
2022/12/19 07:38:03;;;;;;;;;;;3.30;99.90;;;;;;5059745;28;20456;-64
2022/12/19 07:40:30;;;;;;;;;;;3.30;99.90;;;;;;5057194;28;19934;-63
2022/12/19 07:42:58;;;;;;;;;;;3.30;99.90;;;;;;5049121;28;19918;-65
2022/12/19 07:45:23;;;;;;;;;;;3.30;99.90;;;;;;5050627;28;20008;-63
2022/12/19 07:47:48;;;;;;;;;;;3.40;99.90;;;;;;5047931;28;19917;-63
2022/12/19 07:50:14;;;;;;;;;;;3.30;99.90;;;;;;5054436;28;19946;-63
2022/12/19 07:52:39;;;;;;;;;;;3.40;99.90;;;;;;5051952;28;19916;-63
2022/12/19 07:55:05;;;;;;;;;;;3.40;99.90;;;;;;5051491;28;19912;-62
2022/12/19 07:57:30;;;;;;;;;;;3.40;99.90;;;;;;5049263;28;20390;-63
2022/12/19 07:59:56;;;;;;;;;;;3.40;99.90;;;;;;5050246;28;19971;-64
2022/12/19 08:02:21;;;;;;;;;;;3.50;99.90;;;;;;5047212;28;20360;-63
2022/12/19 08:04:47;;;;;;;;;;;3.50;99.90;;;;;;5051065;28;19912;-63
2022/12/19 08:07:12;;;;;;;;;;;3.50;99.90;;;;;;5052059;28;20011;-63
2022/12/19 08:09:38;;;;;;;;;;;3.50;99.90;;;;;;5050148;28;19992;-62
2022/12/19 08:12:03;;;;;;;;;;;3.60;99.90;;;;;;5056081;28;19917;-62
2022/12/19 08:14:29;;;;;;;;;;;3.60;99.90;;;;;;5055002;28;19912;-64
2022/12/19 08:16:54;;;;;;;;;;;3.70;99.90;;;;;;5049370;28;19917;-63
2022/12/19 08:19:20;;;;;;;;;;;3.70;99.90;;;;;;5049369;28;19925;-64
2022/12/19 08:21:45;;;;;;;;;;;3.70;99.90;;;;;;5048648;28;19956;-62
2022/12/19 08:24:10;;;;;;;;;;;3.70;99.90;;;;;;5059543;28;20708;-62
2022/12/19 08:26:36;;;;;;;;;;;3.60;99.90;;;;;;5054464;28;20333;-64
2022/12/19 08:29:01;;;;;;;;;;;3.60;99.90;;;;;;5048857;28;20301;-65
2022/12/19 08:31:27;;;;;;;;;;;3.70;99.90;;;;;;5053124;28;19916;-63
2022/12/19 08:33:54;;;;;;;;;;;3.70;99.90;;;;;;5052316;28;20306;-63
2022/12/19 08:36:19;;;;;;;;;;;3.70;99.90;;;;;;5052427;28;20015;-63
2022/12/19 08:38:45;;;;;;;;;;;3.80;99.90;;;;;;5045408;28;20011;-63
2022/12/19 08:41:10;;;;;;;;;;;3.80;99.90;;;;;;5053357;28;19913;-63
2022/12/19 08:43:37;;;;;;;;;;;3.80;99.90;;;;;;5047238;28;19912;-64
2022/12/19 08:46:02;;;;;;;;;;;3.80;99.90;;;;;;5047323;28;20425;-63
2022/12/19 08:48:28;;;;;;;;;;;3.80;99.90;;;;;;5048685;28;19964;-64
2022/12/19 08:50:58;;;;;;;;;;;3.90;99.90;;;;;;5054003;28;20008;-63
2022/12/19 08:53:25;;;;;;;;;;;3.90;99.90;;;;;;5049624;28;19913;-63
2022/12/19 08:55:54;;;;;;;;;;;3.90;99.90;;;;;;5053859;28;20415;-62
2022/12/19 08:58:20;;;;;;;;;;;3.90;99.90;;;;;;5050208;28;19959;-63
2022/12/19 09:00:45;;;;;;;;;;;4.00;99.90;;;;;;5051804;28;19917;-63
2022/12/19 09:03:11;;;;;;;;;;;4.00;99.90;;;;;;5051098;28;20298;-64
2022/12/19 09:05:37;;;;;;;;;;;4.00;99.90;;;;;;5053015;28;20002;-64
2022/12/19 09:08:02;;;;;;;;;;;4.00;99.90;;;;;;5052147;28;20390;-64
2022/12/19 09:10:30;;;;;;;;;;;4.10;99.90;;;;;;5058731;28;19913;-64
2022/12/19 09:12:55;;;;;;;;;;;4.10;99.90;;;;;;5052461;28;19952;-64
2022/12/19 09:15:21;;;;;;;;;;;4.10;99.90;;;;;;5053450;28;20026;-64
2022/12/19 09:17:46;;;;;;;;;;;4.10;99.90;;;;;;5049673;28;19917;-64
2022/12/19 09:20:12;;;;;;;;;;;4.10;99.90;;;;;;5053311;28;19909;-64
2022/12/19 09:22:37;;;;;;;;;;;4.20;99.90;;;;;;5053278;28;20413;-64
2022/12/19 09:25:03;;;;;;;;;;;4.20;99.90;;;;;;5055238;28;19909;-64
2022/12/19 09:27:28;;;;;;;;;;;4.20;99.90;;;;;;5052487;28;19991;-65
2022/12/19 09:29:54;;;;;;;;;;;4.20;99.90;;;;;;5049594;28;19967;-65
2022/12/19 09:32:19;;;;;;;;;;;4.30;99.90;;;;;;5055481;28;19933;-64
2022/12/19 09:34:45;;;;;;;;;;;4.30;99.90;;;;;;5055693;28;19964;-65
2022/12/19 09:37:11;;;;;;;;;;;4.30;99.90;;;;;;5056883;28;19921;-65
2022/12/19 09:39:36;;;;;;;;;;;4.30;99.90;;;;;;5055893;28;19917;-65
2022/12/19 09:42:07;;;;;;;;;;;4.30;99.90;;;;;;5055304;28;19909;-64
2022/12/19 09:44:33;;;;;;;;;;;4.30;99.90;;;;;;5052837;28;19983;-65
2022/12/19 09:47:04;;;;;;;;;;;4.30;99.90;;;;;;5051834;28;20410;-63
2022/12/19 09:49:35;;;;;;;;;;;4.30;99.90;;;;;;5095022;22;19971;-66
2022/12/19 09:52:04;;;;;;;;;;;4.30;99.90;;;;;;5089391;28;19970;-66
2022/12/19 09:54:35;;;;;;;;;;;4.30;99.90;;;;;;5089622;28;20404;-67
2022/12/19 09:57:03;;;;;;;;;;;4.30;99.90;;;;;;5085466;28;20543;-67
2022/12/19 09:59:44;;;;;;;;;;;4.30;99.90;;;;;;5068249;28;20313;-66
2022/12/19 10:02:25;;;;;;;;;;;4.30;99.90;;;;;;5061750;28;19916;-66
2022/12/19 10:04:53;;;;;;;;;;;4.30;99.90;;;;;;5066195;28;19912;-66
2022/12/19 10:07:19;;;;;;;;;;;4.20;99.90;;;;;;5065374;28;19918;-66
2022/12/19 10:09:44;;;;;;;;;;;4.20;99.90;;;;;;5062312;28;19917;-66
2022/12/19 10:12:35;;;;;;;;;;;4.20;99.90;;;;;;5061055;28;19916;-66
2022/12/19 10:15:19;;;;;;;;;;;4.20;99.90;;;;;;5066717;28;19917;-66
2022/12/19 10:18:04;;;;;;;;;;;4.20;99.90;;;;;;5067044;28;19912;-66
2022/12/19 10:20:33;;;;;;;;;;;4.20;99.90;;;;;;5063382;28;20039;-64
2022/12/19 10:23:04;;;;;;;;;;;4.20;99.90;;;;;;5063905;28;20099;-66
2022/12/19 10:25:56;;;;;;;;;;;4.20;99.90;;;;;;5062987;28;20362;-66
2022/12/19 10:28:33;;;;;;;;;;;4.20;99.90;;;;;;5041973;28;20406;-67
2022/12/19 10:30:58;;;;;;;;;;;4.20;99.90;;;;;;5064361;28;20400;-64
2022/12/19 10:33:46;;;;;;;;;;;4.20;99.90;;;;;;5068337;28;19913;-65
2022/12/19 10:36:11;;;;;;;;;;;4.30;99.90;;;;;;5056531;28;19919;-66
2022/12/19 10:38:42;;;;;;;;;;;4.30;99.90;;;;;;5065287;28;19912;-66
2022/12/19 10:41:14;;;;;;;;;;;4.30;99.90;;;;;;5065603;28;19926;-65
2022/12/19 10:43:51;;;;;;;;;;;4.30;99.90;;;;;;5062638;28;19920;-66
2022/12/19 10:46:27;;;;;;;;;;;4.30;99.90;;;;;;5066275;28;20003;-67
2022/12/19 10:48:52;;;;;;;;;;;4.40;99.90;;;;;;5064398;28;19955;-66
2022/12/19 10:51:22;;;;;;;;;;;4.50;99.90;;;;;;5065472;28;19920;-66
2022/12/19 10:53:55;;;;;;;;;;;4.50;99.90;;;;;;5065538;28;19940;-66
2022/12/19 10:56:23;;;;;;;;;;;4.60;99.90;;;;;;5071264;28;20002;-66
2022/12/19 10:58:50;;;;;;;;;;;4.70;99.90;;;;;;5062151;28;19920;-66
2022/12/19 11:01:26;;;;;;;;;;;4.70;99.90;;;;;;5067583;28;19916;-66
2022/12/19 11:04:11;;;;;;;;;;;4.70;99.90;;;;;;5065480;28;19912;-66
2022/12/19 11:06:36;;;;;;;;;;;4.70;99.90;;;;;;5069557;28;19924;-66
2022/12/19 11:09:34;;;;;;;;;;;4.80;99.90;;;;;;5071431;28;19908;-67
2022/12/19 11:12:06;;;;;;;;;;;4.80;99.90;;;;;;5035373;28;20002;-65
2022/12/19 11:14:32;;;;;;;;;;;4.80;99.90;;;;;;5066782;28;20003;-67
2022/12/19 11:16:58;;;;;;;;;;;4.80;99.90;;;;;;5068759;28;19920;-67
2022/12/19 11:19:29;;;;;;;;;;;4.80;99.90;;;;;;5066833;28;19913;-67
2022/12/19 11:22:05;;;;;;;;;;;4.80;99.90;;;;;;5066285;28;19913;-66
2022/12/19 11:24:35;;;;;;;;;;;4.80;99.90;;;;;;5065910;28;19920;-65
2022/12/19 11:27:00;;;;;;;;;;;4.80;99.90;;;;;;5064053;28;19912;-66
2022/12/19 11:29:26;;;;;;;;;;;4.80;99.90;;;;;;5068354;28;19916;-65
2022/12/19 11:31:58;;;;;;;;;;;4.80;99.90;;;;;;5068498;28;19916;-66
2022/12/19 11:34:25;;;;;;;;;;;4.80;99.90;;;;;;5067695;28;19999;-66
2022/12/19 11:37:11;;;;;;;;;;;4.80;99.90;;;;;;5065511;28;19912;-66
2022/12/19 11:39:51;;;;;;;;;;;4.90;99.90;;;;;;5064376;28;19924;-66
2022/12/19 11:42:26;;;;;;;;;;;4.90;99.90;;;;;;5067402;28;19913;-66
2022/12/19 11:45:03;;;;;;;;;;;4.90;99.90;;;;;;5066723;28;20015;-66
2022/12/19 11:47:34;;;;;;;;;;;5.00;99.90;;;;;;5066662;28;19913;-65
2022/12/19 11:50:02;;;;;;;;;;;5.00;99.90;;;;;;5067143;28;19965;-65
2022/12/19 11:52:34;;;;;;;;;;;5.00;99.90;;;;;;5069943;28;19987;-65
2022/12/19 11:55:14;;;;;;;;;;;5.00;99.90;;;;;;5066233;28;19920;-66
2022/12/19 11:57:40;;;;;;;;;;;5.00;99.90;;;;;;5069034;28;20289;-65
2022/12/19 12:00:10;;;;;;;;;;;5.10;99.90;;;;;;5067047;28;19912;-66
2022/12/19 12:02:36;;;;;;;;;;;5.10;99.90;;;;;;5070571;28;19915;-65
2022/12/19 12:05:08;;;;;;;;;;;5.10;99.90;;;;;;5064885;28;19913;-65
2022/12/19 12:07:35;;;;;;;;;;;5.10;99.90;;;;;;5065122;28;19913;-65
2022/12/19 12:10:04;;;;;;;;;;;5.20;99.90;;;;;;5065000;28;19913;-66
2022/12/19 12:12:41;;;;;;;;;;;5.20;99.90;;;;;;5062540;28;20358;-65
2022/12/19 12:15:13;;;;;;;;;;;5.20;99.90;;;;;;5062439;28;20038;-64
2022/12/19 12:17:44;;;;;;;;;;;5.20;99.90;;;;;;5068347;28;19912;-65
2022/12/19 12:20:10;;;;;;;;;;;5.20;99.90;;;;;;5063858;28;19970;-65
2022/12/19 12:22:52;;;;;;;;;;;5.20;99.90;;;;;;5063033;28;19916;-65
2022/12/19 12:25:29;;;;;;;;;;;5.10;99.90;;;;;;5062663;28;19912;-64
2022/12/19 12:28:09;;;;;;;;;;;5.10;99.90;;;;;;5064599;28;19917;-63
2022/12/19 12:30:55;;;;;;;;;;;5.20;99.90;;;;;;5067988;28;20467;-65
2022/12/19 12:33:28;;;;;;;;;;;5.20;99.90;;;;;;5062444;28;19916;-65
2022/12/19 12:35:56;;;;;;;;;;;5.30;99.90;;;;;;5068916;28;20278;-65
2022/12/19 12:38:41;;;;;;;;;;;5.30;99.90;;;;;;5068168;28;19956;-65
2022/12/19 12:41:16;;;;;;;;;;;5.30;99.90;;;;;;5071439;28;19920;-65
2022/12/19 12:43:41;;;;;;;;;;;5.40;99.90;;;;;;5068178;28;19916;-65
2022/12/19 12:46:14;;;;;;;;;;;5.40;99.90;;;;;;5069439;28;19920;-65
2022/12/19 12:48:40;;;;;;;;;;;5.40;99.90;;;;;;5069142;28;19916;-65
2022/12/19 12:51:06;;;;;;;;;;;5.40;99.90;;;;;;5070358;28;20393;-65
2022/12/19 12:53:33;;;;;;;;;;;5.40;99.90;;;;;;5071203;28;19909;-65
2022/12/19 12:56:00;;;;;;;;;;;5.40;99.90;;;;;;5070657;28;19912;-65
2022/12/19 12:58:55;;;;;;;;;;;5.40;99.90;;;;;;5066723;28;19928;-64
2022/12/19 13:01:24;;;;;;;;;;;5.40;99.90;;;;;;5048234;28;19924;-64
2022/12/19 13:03:51;;;;;;;;;;;5.50;99.90;;;;;;5070065;28;19912;-65
2022/12/19 13:06:25;;;;;;;;;;;5.50;99.90;;;;;;5059013;28;20301;-65
2022/12/19 13:08:54;;;;;;;;;;;5.50;99.90;;;;;;5068909;28;19921;-65
2022/12/19 13:14:05;;;;;;;;;;;5.60;99.90;;;;;;5068479;28;20385;-66
2022/12/19 13:16:43;;;;;;;;;;;5.60;99.90;;;;;;5067259;28;19916;-66
2022/12/19 13:19:17;;;;;;;;;;;5.60;99.90;;;;;;5065549;28;20415;-66
2022/12/19 13:22:01;;;;;;;;;;;5.60;99.90;;;;;;5063167;28;20404;-65
2022/12/19 13:24:36;;;;;;;;;;;5.60;99.90;;;;;;5066515;28;19917;-66
2022/12/19 13:27:01;;;;;;;;;;;5.60;99.90;;;;;;5069723;28;19924;-66
2022/12/19 13:29:29;;;;;;;;;;;5.50;99.90;;;;;;5058386;28;19979;-65
2022/12/19 13:32:07;;;;;;;;;;;5.50;99.90;;;;;;5067167;28;19916;-64
2022/12/19 13:34:35;;;;;;;;;;;5.50;99.90;;;;;;5068112;28;19912;-64
2022/12/19 13:37:20;;;;;;;;;;;5.50;99.90;;;;;;5069807;28;19924;-64
2022/12/19 13:39:57;;;;;;;;;;;5.50;99.90;;;;;;5065747;28;19912;-64
2022/12/19 13:45:13;;;;;;;;;;;5.40;99.90;;;;;;5058418;28;19970;-65
2022/12/19 13:47:40;;;;;;;;;;;5.40;99.90;;;;;;5061561;28;20007;-66
2022/12/19 13:50:15;;;;;;;;;;;5.40;99.90;;;;;;5063127;28;19958;-66
2022/12/19 13:52:40;;;;;;;;;;;5.40;99.90;;;;;;5066991;28;19924;-66
2022/12/19 13:55:12;;;;;;;;;;;5.40;99.90;;;;;;5066616;28;19939;-65
2022/12/19 13:57:37;;;;;;;;;;;5.40;99.90;;;;;;5065489;28;20630;-65
2022/12/19 14:00:07;;;;;;;;;;;5.40;99.90;;;;;;5065408;28;19913;-65
2022/12/19 14:02:33;;;;;;;;;;;5.40;99.90;;;;;;5063321;28;20005;-65
2022/12/19 14:04:59;;;;;;;;;;;5.40;99.90;;;;;;5064258;28;19917;-65
2022/12/19 14:07:27;;;;;;;;;;;5.30;99.90;;;;;;5062013;28;19924;-65
2022/12/19 14:09:53;;;;;;;;;;;5.40;99.90;;;;;;5067406;28;20018;-65
2022/12/19 14:15:30;;;;;;;;;;;5.40;99.90;;;;;;4982621;28;20033;-63
2022/12/19 14:17:57;;;;;;;;;;;5.40;99.90;;;;;;4984565;28;19928;-64
2022/12/19 14:20:25;;;;;;;;;;;5.40;99.90;;;;;;5025620;28;20011;-65
2022/12/19 14:23:00;;;;;;;;;;;5.40;99.90;;;;;;5065036;28;19923;-64
2022/12/19 14:25:33;;;;;;;;;;;5.40;99.90;;;;;;5062043;28;21190;-65
2022/12/19 14:28:01;;;;;;;;;;;5.40;99.90;;;;;;5059513;28;19917;-64
2022/12/19 14:30:31;;;;;;;;;;;5.40;99.90;;;;;;5066986;28;19928;-65
2022/12/19 14:33:02;;;;;;;;;;;5.40;99.90;;;;;;5060191;28;19927;-65
2022/12/19 14:35:30;;;;;;;;;;;5.40;99.90;;;;;;5059934;28;19927;-65
2022/12/19 14:38:00;;;;;;;;;;;5.40;99.90;;;;;;5063270;28;19920;-65
2022/12/19 14:40:29;;;;;;;;;;;5.40;99.90;;;;;;5061508;28;20291;-65
2022/12/19 14:45:45;;;;;;;;;;;5.40;99.90;;;;;;5055120;28;20313;-65
2022/12/19 14:48:43;;;;;;;;;;;5.50;99.90;;;;;;5059670;28;19921;-65
2022/12/19 14:51:08;;;;;;;;;;;5.40;99.90;;;;;;5005933;28;19920;-64
2022/12/19 14:53:34;;;;;;;;;;;5.50;99.90;;;;;;5064387;28;19928;-65
2022/12/19 14:56:04;;;;;;;;;;;5.50;99.90;;;;;;5058323;28;19924;-65
2022/12/19 14:58:31;;;;;;;;;;;5.50;99.90;;;;;;5056200;28;19950;-64